logo
Rechercher aéroport 
image banner adimage banner adimage banner ad
image banner ad

49CA - Dcor Platform Habitat

Situé à Carpinteria, United States

ICAO - 49CA, IATA -

Données fournies par Airmate  

Information générale

Coordonnées: N34°17'12" W119°35'20"
Élévation : 90 feet MSL.
Variation magnétique : 14° East
Voir autres Aéroports à California

Données opérationnelles

Special qualification required
Heure actuelle UTC:
Heure actuelle locale:
Météo à : KSBA - Santa Barbara Muni ( 28 km )
METAR: KSBA 281253Z 00000KT 6SM BR CLR 17/15 A2989 RMK AO2 SLP123 T01670150
TAF: KSBA 281148Z 2812/2912 VRB03KT P6SM SKC FM281600 16005KT P6SM SKC FM282100 19007KT P6SM SKC FM290200 VRB03KT P6SM SKC
Voir NOTAMs / SUP AIP / TFR affectant cet aéroport [VIEW]
Fréquences de communication: [VIEW]

Pistes:

Coordonnées de l'aéroport

Adresse: Carpinteria United States

Vue satellite de 49CA